Weather History for Shishmaref, AK

Change the Weather History Date:

Sunday, June 30, 2013

  Actual Average Record
Temperature  
Mean Temperature 47 °F -  
Max Temperature 53 °F 48 °F 64 °F (2004)
Min Temperature 41 °F 40 °F 35 °F (2000)
Degree Days  
Heating Degree Days 18    
Moisture  
Dew Point 45 °F    
Average Humidity 87    
Maximum Humidity 94    
Minimum Humidity 72    
Precipitation  
Precipitation 0.06 in - - ()
Sea Level Pressure  
Sea Level Pressure 29.51 in    
Wind  
Wind Speed 12 mph (SE)    
Max Wind Speed 17 mph    
Max Gust Speed 20 mph    
Visibility 10 miles    
Events      
Averages and records for this station are not official NWS values.
T = Trace of Precipitation, MM = Missing Value Source: NWS Daily Summary

Daily Weather History Graph

Daily Weather History Graph

Search for Another Location

Airport:

Trip Planner

Search our weather history database for the weather conditions in past years. The results will help you decide how hot, cold, wet, or windy it might be!

Date:

Astronomy

Jun. 30, 2013 Rise Set
Actual Time 3:40 AM AKDT 2:35 AM AKDT
Civil Twilight Sun does not rise Sun does not rise
Nautical Twilight Sun does not rise Sun does not rise
Astronomical Twilight Sun does not rise Sun does not rise
Moon 2:01 AM AKDT (6/30) 5:05 PM AKDT (6/30)
Length of Visible Light 24h 00m
Length of Day
22h 55m
Last Quarter, 44% of the Moon is Illuminated
Jun 30
Last Quarter
Jul 7
New
Jul 15
First Quarter
Jul 22
Full
Jul 29
Last Quarter

Hourly Weather History & Observations

Time (AKDT) Temp. Windchill Dew Point Humidity Pressure Visibility Wind Dir Wind Speed Gust Speed Precip Events Conditions
12:16 AM 51.8 °F - 48.2 °F 88% 29.67 in 10.0 mi East 13.8 mph - N/A   Overcast
12:36 AM 51.8 °F - 48.2 °F 88% 29.67 in 10.0 mi ESE 13.8 mph 19.6 mph N/A   Overcast
12:56 AM 51.8 °F - 48.2 °F 88% 29.66 in 10.0 mi ESE 15.0 mph - N/A   Overcast
1:16 AM 51.8 °F - 48.2 °F 88% 29.65 in 10.0 mi ESE 16.1 mph - N/A   Overcast
1:36 AM 51.8 °F - 48.2 °F 88% 29.64 in 10.0 mi ESE 17.3 mph - N/A   Mostly Cloudy
1:56 AM 51.8 °F - 48.2 °F 88% 29.64 in 10.0 mi ESE 15.0 mph - N/A   Mostly Cloudy
2:16 AM 51.8 °F - 48.2 °F 88% 29.63 in 10.0 mi ESE 17.3 mph - 0.01 in   Overcast
2:36 AM 50.0 °F - 46.4 °F 87% 29.62 in 10.0 mi SE 15.0 mph - 0.01 in   Overcast
2:56 AM 50.0 °F - 46.4 °F 87% 29.62 in 10.0 mi SE 16.1 mph - 0.01 in   Overcast
3:16 AM 50.0 °F - 46.4 °F 87% 29.61 in 10.0 mi SE 16.1 mph - N/A   Overcast
3:36 AM 50.0 °F - 44.6 °F 82% 29.60 in 10.0 mi SE 15.0 mph - N/A   Overcast
3:56 AM 50.0 °F - 46.4 °F 87% 29.60 in 10.0 mi SE 15.0 mph - N/A   Overcast
4:16 AM 50.0 °F - 46.4 °F 87% 29.59 in 10.0 mi SE 12.7 mph - N/A   Overcast
4:36 AM 48.2 °F - 46.4 °F 93% 29.59 in 10.0 mi SE 13.8 mph - 0.01 in   Overcast
4:56 AM 48.2 °F - 46.4 °F 93% 29.58 in 10.0 mi SE 13.8 mph - 0.02 in   Overcast
5:16 AM 48.2 °F - 46.4 °F 93% 29.57 in 10.0 mi SE 15.0 mph - 0.01 in   Overcast
5:36 AM 48.2 °F - 46.4 °F 93% 29.56 in 10.0 mi SE 12.7 mph - 0.02 in   Overcast
5:56 AM 48.2 °F - 46.4 °F 93% 29.54 in 10.0 mi SE 16.1 mph - 0.03 in   Overcast
6:16 AM 48.2 °F - 46.4 °F 93% 29.53 in 10.0 mi SE 16.1 mph - N/A   Overcast
6:36 AM 48.2 °F - 44.6 °F 87% 29.53 in 10.0 mi SE 13.8 mph - N/A   Overcast
6:56 AM 48.2 °F - 44.6 °F 87% 29.52 in 10.0 mi ESE 13.8 mph - N/A   Overcast
7:16 AM 48.2 °F - 44.6 °F 87% 29.51 in 10.0 mi SE 15.0 mph - N/A   Mostly Cloudy
7:36 AM 48.2 °F - 44.6 °F 87% 29.51 in 10.0 mi SE 13.8 mph - N/A   Mostly Cloudy
7:56 AM 48.2 °F - 44.6 °F 87% 29.51 in 10.0 mi SSE 11.5 mph - N/A   Mostly Cloudy
8:16 AM 48.2 °F - 44.6 °F 87% 29.51 in 10.0 mi SSE 12.7 mph - N/A   Scattered Clouds
8:36 AM 48.2 °F - 44.6 °F 87% 29.52 in 10.0 mi SSE 11.5 mph - N/A   Mostly Cloudy
8:56 AM 48.2 °F - 44.6 °F 87% 29.51 in 10.0 mi SSE 9.2 mph - N/A   Scattered Clouds
9:16 AM 48.2 °F - 44.6 °F 87% 29.51 in 10.0 mi SSE 9.2 mph - N/A   Partly Cloudy
9:36 AM 48.2 °F - 44.6 °F 87% 29.51 in 10.0 mi SSE 12.7 mph - N/A   Mostly Cloudy
9:56 AM 48.2 °F - 44.6 °F 87% 29.51 in 10.0 mi South 9.2 mph - N/A   Overcast
10:16 AM 50.0 °F - 46.4 °F 87% 29.51 in 10.0 mi SW 9.2 mph - N/A   Overcast
10:36 AM 50.0 °F - 48.2 °F 94% 29.51 in 5.0 mi SW 8.1 mph - N/A   Overcast
10:56 AM 48.2 °F - 44.6 °F 87% 29.51 in 10.0 mi SSW 6.9 mph - N/A   Overcast
11:16 AM 48.2 °F - 46.4 °F 93% 29.51 in 10.0 mi South 5.8 mph - N/A   Overcast
11:36 AM 48.2 °F - 46.4 °F 93% 29.51 in 10.0 mi SSE 5.8 mph - N/A   Mostly Cloudy
11:56 AM 48.2 °F - 44.6 °F 87% 29.50 in 10.0 mi SSE 3.5 mph - N/A   Overcast
12:16 PM 48.2 °F - 44.6 °F 87% 29.50 in 10.0 mi SSE 3.5 mph - N/A   Overcast
12:36 PM 50.0 °F - 44.6 °F 82% 29.50 in 10.0 mi Calm Calm - N/A   Overcast
12:56 PM 50.0 °F - 46.4 °F 87% 29.51 in 10.0 mi East 4.6 mph - N/A   Overcast
1:16 PM 48.2 °F - 44.6 °F 87% 29.50 in 10.0 mi NE 3.5 mph - N/A   Overcast
1:36 PM 46.4 °F 42.4 °F 42.8 °F 87% 29.50 in 10.0 mi NE 8.1 mph - N/A   Overcast
1:56 PM 44.6 °F 40.2 °F 42.8 °F 93% 29.49 in 10.0 mi NE 8.1 mph - N/A   Overcast
2:16 PM 44.6 °F 40.7 °F 42.8 °F 93% 29.49 in 10.0 mi NE 6.9 mph - N/A   Overcast
2:36 PM 44.6 °F 41.4 °F 41.0 °F 87% 29.47 in 10.0 mi NNE 5.8 mph - N/A   Overcast
2:56 PM 48.2 °F - 46.4 °F 93% 29.47 in 10.0 mi SSE 12.7 mph - N/A   Overcast
3:16 PM 53.6 °F - 46.4 °F 77% 29.47 in 10.0 mi SSE 13.8 mph - N/A   Overcast
3:36 PM 53.6 °F - 46.4 °F 77% 29.46 in 10.0 mi SSE 12.7 mph - N/A   Overcast
3:56 PM 53.6 °F - 46.4 °F 77% 29.46 in 10.0 mi SSE 10.4 mph - N/A   Overcast
4:16 PM 53.6 °F - 46.4 °F 77% 29.45 in 10.0 mi SSE 13.8 mph - N/A   Overcast
4:36 PM 53.6 °F - 44.6 °F 72% 29.45 in 10.0 mi WSW 6.9 mph - N/A   Overcast
4:56 PM 42.8 °F 38.6 °F 37.4 °F 81% 29.45 in 10.0 mi WNW 6.9 mph - N/A   Mostly Cloudy
5:16 PM 42.8 °F 38.0 °F 39.2 °F 87% 29.45 in 10.0 mi WNW 8.1 mph - N/A   Overcast
5:36 PM 41.0 °F 37.1 °F 37.4 °F 87% 29.45 in 10.0 mi NNW 5.8 mph - N/A   Overcast
5:56 PM 41.0 °F 37.1 °F 37.4 °F 87% 29.45 in 10.0 mi NNW 5.8 mph - N/A   Overcast
6:16 PM 41.0 °F 36.4 °F 37.4 °F 87% 29.45 in 10.0 mi NNW 6.9 mph - N/A   Overcast
6:36 PM 42.8 °F 38.6 °F 39.2 °F 87% 29.45 in 10.0 mi NNE 6.9 mph - N/A   Overcast
6:56 PM 42.8 °F 38.6 °F 39.2 °F 87% 29.44 in 10.0 mi North 6.9 mph - N/A   Overcast
7:16 PM 42.8 °F 37.0 °F 39.2 °F 87% 29.44 in 10.0 mi NNE 10.4 mph - N/A   Overcast
7:36 PM 42.8 °F 37.0 °F 39.2 °F 87% 29.44 in 10.0 mi NE 10.4 mph - N/A   Overcast
7:56 PM 42.8 °F 38.0 °F 39.2 °F 87% 29.44 in 10.0 mi NNE 8.1 mph - N/A   Overcast
8:16 PM 44.6 °F 40.2 °F 42.8 °F 93% 29.44 in 10.0 mi ENE 8.1 mph - N/A   Overcast
8:36 PM 42.8 °F 39.3 °F 39.2 °F 87% 29.44 in 10.0 mi NE 5.8 mph - N/A   Overcast
8:56 PM 51.8 °F - 46.4 °F 82% 29.43 in 10.0 mi SE 16.1 mph - N/A   Overcast
9:16 PM 51.8 °F - 46.4 °F 82% 29.43 in 10.0 mi SE 12.7 mph - N/A   Overcast
9:36 PM 51.8 °F - 46.4 °F 82% 29.43 in 10.0 mi SE 13.8 mph - N/A   Overcast
9:56 PM 51.8 °F - 46.4 °F 82% 29.43 in 10.0 mi ESE 10.4 mph - N/A   Overcast
10:16 PM 51.8 °F - 48.2 °F 88% 29.43 in 10.0 mi SE 13.8 mph - N/A   Overcast
10:36 PM 50.0 °F - 46.4 °F 87% 29.43 in 10.0 mi ESE 12.7 mph - N/A   Overcast
10:56 PM 50.0 °F - 46.4 °F 87% 29.42 in 10.0 mi ESE 11.5 mph - N/A   Mostly Cloudy
11:16 PM 50.0 °F - 46.4 °F 87% 29.42 in 10.0 mi ESE 10.4 mph - N/A   Mostly Cloudy
11:36 PM 50.0 °F - 46.4 °F 87% 29.42 in 10.0 mi ESE 13.8 mph - N/A   Overcast
11:56 PM 51.8 °F - 46.4 °F 82% 29.42 in 10.0 mi ESE 15.0 mph - N/A   Overcast